createdAt,value
2022-08-21T06:14:03.650Z,100.00
2022-08-21T06:24:03.465Z,100.00
2022-08-21T06:34:03.536Z,100.00
2022-08-21T06:44:03.551Z,100.00
2022-08-21T06:54:03.438Z,100.00
2022-08-21T07:04:03.576Z,100.00
2022-08-21T07:14:03.718Z,100.00
2022-08-21T07:24:03.554Z,100.00
2022-08-21T07:34:03.733Z,100.00
2022-08-21T07:44:03.714Z,100.00
2022-08-21T07:54:03.716Z,95.41
2022-08-21T08:04:03.621Z,88.53
2022-08-21T08:14:03.628Z,77.26
2022-08-21T08:24:19.374Z,70.79
2022-08-21T08:34:03.924Z,64.74
2022-08-21T08:44:03.814Z,61.80
2022-08-21T08:54:03.714Z,57.12
2022-08-21T09:04:03.920Z,56.44
2022-08-21T09:14:03.663Z,56.99
2022-08-21T09:24:03.685Z,56.00
2022-08-21T09:34:03.864Z,53.99
2022-08-21T09:44:03.674Z,52.66
2022-08-21T09:54:03.695Z,52.04
2022-08-21T10:04:03.633Z,49.44
2022-08-21T10:14:03.936Z,49.30
2022-08-21T10:24:03.906Z,50.55
2022-08-21T10:34:03.831Z,50.55
2022-08-21T10:44:03.950Z,48.48
2022-08-21T10:54:03.814Z,46.94
2022-08-21T11:04:03.864Z,48.80
2022-08-21T11:14:03.892Z,47.86
2022-08-21T11:24:04.045Z,47.34
2022-08-21T11:34:03.972Z,43.35
2022-08-21T11:44:03.958Z,45.11
2022-08-21T11:54:03.915Z,42.28
2022-08-21T12:04:04.216Z,40.76
2022-08-21T12:14:04.273Z,42.53
2022-08-21T12:24:03.861Z,42.52
2022-08-21T12:34:03.923Z,41.24
2022-08-21T12:44:03.963Z,39.02
2022-08-21T12:54:03.944Z,37.78
2022-08-21T13:04:04.422Z,38.17
2022-08-21T13:14:04.675Z,39.81
2022-08-21T13:24:14.857Z,40.47
2022-08-21T13:34:04.146Z,42.33
2022-08-21T13:44:04.132Z,42.38
2022-08-21T13:54:04.003Z,40.91
2022-08-21T14:04:03.896Z,39.81
2022-08-21T14:14:04.109Z,40.38
2022-08-21T14:24:04.426Z,41.77
2022-08-21T14:34:04.166Z,41.41
2022-08-21T14:44:09.286Z,42.08
2022-08-21T14:54:04.140Z,42.10
2022-08-21T15:04:04.029Z,41.36
2022-08-21T15:14:04.148Z,41.65
2022-08-21T15:24:04.174Z,40.77
2022-08-21T15:34:04.390Z,39.73
2022-08-21T15:44:04.294Z,40.27
2022-08-21T15:54:04.503Z,38.17
2022-08-21T16:04:04.683Z,40.36
2022-08-21T16:14:04.531Z,39.19
2022-08-21T16:24:04.810Z,41.19
2022-08-21T16:34:04.630Z,42.39
2022-08-21T16:44:04.610Z,41.80
2022-08-21T16:54:05.048Z,41.52
2022-08-21T17:04:04.729Z,42.01
2022-08-21T17:14:04.504Z,43.85
2022-08-21T17:24:04.574Z,46.52
2022-08-21T17:34:04.552Z,48.65
2022-08-21T17:44:04.826Z,49.75
2022-08-21T17:54:04.687Z,52.83
2022-08-21T18:04:04.888Z,55.10
2022-08-21T18:14:07.660Z,56.81
2022-08-21T18:24:04.634Z,59.41
2022-08-21T18:34:04.797Z,62.38
2022-08-21T18:44:04.635Z,63.38
2022-08-21T18:54:04.605Z,63.40
2022-08-21T19:04:04.607Z,63.62
2022-08-21T19:14:04.896Z,66.53
